Time;durP1;ratioP1;P1;durP2;ratioP2;P2;SDS_P1;SDS_P2;PMS_P1;PMS_P2;Temp;Humidity;BMP_temperature;BMP_pressure;BME280_temperature;BME280_humidity;BME280_pressure;Samples;Min_cycle;Max_cycle;Signal;HPM_P1;HPM_P2
2023/05/01 00:01:19;;;;;;;8.57;3.63;;;7.10;99.90;;;;;;6159463;23;20342;-86
2023/05/01 00:03:45;;;;;;;7.22;4.10;;;7.10;99.90;;;;;;6185739;23;20349;-85
2023/05/01 00:06:11;;;;;;;8.80;4.22;;;7.10;99.90;;;;;;6133171;23;20455;-85
2023/05/01 00:08:36;;;;;;;8.38;4.32;;;7.20;99.90;;;;;;6034261;23;20019;-85
2023/05/01 00:11:03;;;;;;;7.35;4.65;;;7.00;99.90;;;;;;6034362;23;20019;-86
2023/05/01 00:13:30;;;;;;;9.15;3.85;;;7.00;99.90;;;;;;6033859;23;20377;-86
2023/05/01 00:15:56;;;;;;;8.70;4.32;;;7.00;99.90;;;;;;6034135;23;20467;-85
2023/05/01 00:18:21;;;;;;;9.07;4.60;;;7.30;99.90;;;;;;6033432;23;20034;-87
2023/05/01 00:20:47;;;;;;;13.20;4.88;;;7.00;99.90;;;;;;6034423;23;20129;-85
2023/05/01 00:23:13;;;;;;;9.73;4.82;;;6.90;99.90;;;;;;6033858;23;20099;-86
2023/05/01 00:25:38;;;;;;;8.32;4.95;;;6.90;99.90;;;;;;6034306;23;20416;-86
2023/05/01 00:28:05;;;;;;;7.93;5.00;;;6.90;99.90;;;;;;6035154;23;20354;-86
2023/05/01 00:30:32;;;;;;;6.90;4.50;;;7.00;99.90;;;;;;6032833;23;20015;-85
2023/05/01 00:32:59;;;;;;;9.77;4.60;;;6.80;99.90;;;;;;6034649;23;20405;-86
2023/05/01 00:35:24;;;;;;;8.32;5.00;;;6.80;99.90;;;;;;6055144;23;20043;-85
2023/05/01 00:37:50;;;;;;;7.78;4.53;;;6.80;99.90;;;;;;6033835;23;20033;-85
2023/05/01 00:40:16;;;;;;;11.95;5.13;;;6.80;99.90;;;;;;6033424;23;20018;-85
2023/05/01 00:42:41;;;;;;;13.45;4.78;;;6.70;99.90;;;;;;6031916;23;20015;-85
2023/05/01 00:45:08;;;;;;;7.78;4.68;;;6.70;99.90;;;;;;6033213;23;20630;-85
2023/05/01 00:47:35;;;;;;;8.60;4.50;;;6.70;99.90;;;;;;6032790;23;20783;-86
2023/05/01 00:50:01;;;;;;;9.30;4.60;;;7.20;99.90;;;;;;6032572;23;20486;-85
2023/05/01 00:52:27;;;;;;;9.48;5.03;;;6.60;99.90;;;;;;6033916;23;20027;-85
2023/05/01 00:54:53;;;;;;;14.73;6.03;;;6.60;99.90;;;;;;6033628;23;20026;-86
2023/05/01 00:57:20;;;;;;;10.00;5.10;;;6.60;99.90;;;;;;6033407;23;20598;-85
2023/05/01 00:59:46;;;;;;;11.95;5.30;;;7.10;99.90;;;;;;6033734;23;20058;-85
2023/05/01 01:02:12;;;;;;;16.40;5.13;;;6.60;99.90;;;;;;6032924;23;20053;-85
2023/05/01 01:04:41;;;;;;;11.73;5.35;;;6.80;99.90;;;;;;6033556;23;20011;-86
2023/05/01 01:07:20;;;;;;;8.55;5.28;;;6.60;99.90;;;;;;6056518;23;20023;-86
2023/05/01 01:10:08;;;;;;;11.02;5.45;;;6.60;99.90;;;;;;6034022;23;20018;-86
2023/05/01 01:12:47;;;;;;;10.27;5.65;;;6.60;99.90;;;;;;6033258;23;20109;-85
2023/05/01 01:15:23;;;;;;;9.38;5.47;;;6.50;99.90;;;;;;6033231;23;20026;-85
2023/05/01 01:18:03;;;;;;;12.52;6.03;;;6.50;99.90;;;;;;6033160;23;20097;-86
2023/05/01 01:20:32;;;;;;;14.57;5.70;;;6.40;99.90;;;;;;6032470;23;20027;-85
2023/05/01 01:23:23;;;;;;;12.20;6.22;;;6.40;99.90;;;;;;6034092;23;20034;-86
2023/05/01 01:26:08;;;;;;;12.50;5.13;;;6.40;99.90;;;;;;6033547;23;20034;-87
2023/05/01 01:29:20;;;;;;;12.70;5.05;;;6.40;99.90;;;;;;6034273;23;20374;-86
2023/05/01 01:32:10;;;;;;;8.88;4.95;;;6.40;99.90;;;;;;6032946;23;20022;-85
2023/05/01 01:34:46;;;;;;;9.43;5.45;;;6.40;99.90;;;;;;6034277;23;20023;-85
2023/05/01 01:37:29;;;;;;;12.98;5.30;;;6.40;99.90;;;;;;6032464;23;20023;-85
2023/05/01 01:40:03;;;;;;;11.82;5.70;;;6.40;99.90;;;;;;6032769;23;20041;-85
2023/05/01 01:42:36;;;;;;;10.73;5.22;;;6.40;99.90;;;;;;6032899;23;20023;-85
2023/05/01 01:45:09;;;;;;;14.82;5.22;;;6.60;99.90;;;;;;6033864;23;20030;-86
2023/05/01 01:47:35;;;;;;;;;;;6.40;99.90;;;;;;6033455;23;20030;-85
2023/05/01 01:50:05;;;;;;;8.95;4.55;;;6.40;99.90;;;;;;6032726;23;19922;-85
2023/05/01 01:52:34;;;;;;;12.23;5.78;;;6.40;99.90;;;;;;6032950;23;20058;-86
2023/05/01 01:55:07;;;;;;;10.68;5.25;;;6.30;99.90;;;;;;6033105;23;20114;-84
2023/05/01 01:57:36;;;;;;;12.18;4.97;;;6.40;99.90;;;;;;6056995;23;20022;-85
2023/05/01 02:00:02;;;;;;;11.07;4.78;;;6.40;99.90;;;;;;6032784;23;20055;-86
2023/05/01 02:02:29;;;;;;;12.25;5.00;;;6.60;99.90;;;;;;6033149;23;20015;-85
2023/05/01 02:04:56;;;;;;;11.13;5.47;;;7.20;99.90;;;;;;6033235;23;20019;-85
2023/05/01 02:07:23;;;;;;;15.10;6.45;;;6.40;99.90;;;;;;6031839;23;20034;-85
2023/05/01 02:09:50;;;;;;;13.63;5.65;;;6.40;99.90;;;;;;6033442;23;20030;-85
2023/05/01 02:12:17;;;;;;;13.90;5.75;;;6.80;99.90;;;;;;6032789;23;20022;-85
2023/05/01 02:14:45;;;;;;;13.00;5.50;;;6.40;99.90;;;;;;6033430;23;20306;-84
2023/05/01 02:17:12;;;;;;;13.73;6.40;;;6.80;99.90;;;;;;6033983;23;20013;-85
2023/05/01 02:19:39;;;;;;;11.85;5.53;;;6.80;99.90;;;;;;6034413;23;20025;-85
2023/05/01 02:22:06;;;;;;;13.32;6.03;;;6.40;99.90;;;;;;6033038;23;20053;-86
2023/05/01 02:24:33;;;;;;;12.88;6.00;;;7.00;99.90;;;;;;6057960;23;20092;-85
2023/05/01 02:27:05;;;;;;;11.60;5.95;;;6.40;99.90;;;;;;6034391;23;20448;-85
2023/05/01 02:29:32;;;;;;;11.80;5.75;;;6.40;99.90;;;;;;6033338;23;20046;-85
2023/05/01 02:31:59;;;;;;;12.38;5.72;;;6.40;99.90;;;;;;6034272;23;20403;-86
2023/05/01 02:34:25;;;;;;;11.73;5.80;;;6.40;99.90;;;;;;6056360;23;20058;-85
2023/05/01 02:36:50;;;;;;;15.40;6.88;;;6.50;99.90;;;;;;6033094;23;20019;-85
2023/05/01 02:39:16;;;;;;;9.32;5.55;;;6.60;99.90;;;;;;6033456;23;20050;-85
2023/05/01 02:41:43;;;;;;;11.40;5.93;;;6.30;99.90;;;;;;6056991;23;20019;-85
2023/05/01 02:44:11;;;;;;;12.65;6.68;;;7.00;99.90;;;;;;6033149;23;20019;-85
2023/05/01 02:46:41;;;;;;;13.80;6.65;;;6.90;99.90;;;;;;6034019;23;20050;-85
2023/05/01 02:49:08;;;;;;;10.88;5.78;;;6.20;99.90;;;;;;6057178;23;20046;-84
2023/05/01 02:51:35;;;;;;;13.15;5.85;;;6.50;99.90;;;;;;6033011;23;20019;-84
2023/05/01 02:54:02;;;;;;;9.93;5.88;;;6.20;99.90;;;;;;6034378;23;20026;-85
2023/05/01 02:56:28;;;;;;;14.95;6.18;;;6.10;99.90;;;;;;6057084;23;20019;-85
2023/05/01 02:58:54;;;;;;;10.93;6.15;;;6.00;99.90;;;;;;6034883;23;20027;-86
2023/05/01 03:01:20;;;;;;;14.57;6.53;;;6.00;99.90;;;;;;6033318;23;20042;-86
2023/05/01 03:03:46;;;;;;;14.90;5.85;;;6.00;99.90;;;;;;6034384;23;20019;-85
2023/05/01 03:06:13;;;;;;;14.25;6.45;;;5.90;99.90;;;;;;6087713;23;20021;-86
2023/05/01 03:08:39;;;;;;;14.68;6.03;;;5.90;99.90;;;;;;6134713;23;20054;-86
2023/05/01 03:11:06;;;;;;;9.15;6.07;;;5.90;99.90;;;;;;6185376;23;20016;-85
2023/05/01 03:13:32;;;;;;;14.63;6.88;;;5.90;99.90;;;;;;6158290;23;20472;-85
2023/05/01 03:15:58;;;;;;;16.45;6.80;;;6.30;99.90;;;;;;6184941;23;20054;-84
2023/05/01 03:18:24;;;;;;;11.90;6.95;;;6.00;99.90;;;;;;6183237;23;20020;-85
2023/05/01 03:20:52;;;;;;;16.17;7.22;;;6.00;99.90;;;;;;6159257;23;20453;-85
2023/05/01 03:23:18;;;;;;;12.23;6.88;;;6.20;99.90;;;;;;6159418;23;20523;-85
2023/05/01 03:25:44;;;;;;;19.48;7.53;;;5.70;99.90;;;;;;6183534;23;20016;-84
2023/05/01 03:28:10;;;;;;;12.77;6.35;;;5.80;99.90;;;;;;6159649;23;20028;-85
2023/05/01 03:30:35;;;;;;;14.15;7.30;;;5.70;99.90;;;;;;6183846;23;20023;-85
2023/05/01 03:33:01;;;;;;;14.30;6.72;;;5.70;99.90;;;;;;6183992;23;20094;-84
2023/05/01 03:35:27;;;;;;;14.05;7.18;;;5.60;99.90;;;;;;6157917;23;20091;-83
2023/05/01 03:37:54;;;;;;;19.00;7.03;;;5.70;99.90;;;;;;6134639;23;20033;-85
2023/05/01 03:40:19;;;;;;;9.80;6.55;;;5.60;99.90;;;;;;6057143;23;20464;-85
2023/05/01 03:42:46;;;;;;;12.20;6.68;;;6.00;99.90;;;;;;6033578;23;20018;-85
2023/05/01 03:45:12;;;;;;;10.23;6.78;;;5.50;99.90;;;;;;6134207;23;20023;-85
2023/05/01 03:47:37;;;;;;;14.70;7.65;;;5.40;99.90;;;;;;6057170;23;20029;-85
2023/05/01 03:50:03;;;;;;;13.70;7.22;;;5.90;99.90;;;;;;6158791;23;20016;-85
2023/05/01 03:52:29;;;;;;;13.75;7.22;;;5.40;99.90;;;;;;6133782;23;20463;-85
2023/05/01 03:54:55;;;;;;;16.98;7.25;;;5.50;99.90;;;;;;6134547;23;20636;-85
2023/05/01 03:57:22;;;;;;;14.18;7.28;;;5.40;99.90;;;;;;6184010;23;20445;-85
2023/05/01 03:59:48;;;;;;;12.60;7.43;;;5.60;99.90;;;;;;6063956;23;20046;-85
2023/05/01 04:02:14;;;;;;;17.33;8.13;;;6.10;99.90;;;;;;6033888;23;20526;-85
2023/05/01 04:04:40;;;;;;;13.15;7.68;;;5.40;99.90;;;;;;6033824;23;20031;-85
2023/05/01 04:07:06;;;;;;;18.05;6.82;;;5.60;99.90;;;;;;6104775;23;20451;-84
2023/05/01 04:09:31;;;;;;;14.90;7.43;;;5.30;99.90;;;;;;6033315;23;20026;-84
2023/05/01 04:11:57;;;;;;;20.55;7.45;;;6.00;99.90;;;;;;6033124;23;20351;-86
2023/05/01 04:14:23;;;;;;;14.00;7.80;;;5.30;99.90;;;;;;6033221;23;20023;-85
2023/05/01 04:16:49;;;;;;;14.45;7.35;;;5.40;99.90;;;;;;6184263;23;20096;-85
2023/05/01 04:19:15;;;;;;;18.30;7.50;;;5.20;99.90;;;;;;6159077;23;20017;-86
2023/05/01 04:21:41;;;;;;;17.20;7.55;;;5.30;99.90;;;;;;6157502;23;20426;-85
2023/05/01 04:24:07;;;;;;;19.25;8.23;;;5.90;99.90;;;;;;6159408;23;20016;-85
2023/05/01 04:26:32;;;;;;;14.55;7.82;;;5.60;99.90;;;;;;6183047;23;20095;-85
2023/05/01 04:28:59;;;;;;;18.10;8.07;;;5.20;99.90;;;;;;6183512;23;20071;-86
2023/05/01 04:31:25;;;;;;;15.48;7.90;;;5.30;99.90;;;;;;6158267;23;20107;-87
2023/05/01 04:33:51;;;;;;;14.25;8.00;;;5.40;99.90;;;;;;6160471;23;20072;-87
2023/05/01 04:36:17;;;;;;;16.25;7.95;;;5.20;99.90;;;;;;6033240;23;20030;-87
2023/05/01 04:38:43;;;;;;;12.57;8.05;;;5.40;99.90;;;;;;6184033;23;20021;-87
2023/05/01 04:41:09;;;;;;;14.13;7.78;;;5.30;99.90;;;;;;6183490;23;20017;-87
2023/05/01 04:43:34;;;;;;;11.73;7.75;;;5.20;99.90;;;;;;6158394;23;20344;-86
2023/05/01 04:46:02;;;;;;;22.70;8.10;;;6.00;99.90;;;;;;6071479;23;20029;-86
2023/05/01 04:48:27;;;;;;;14.02;8.25;;;5.40;99.90;;;;;;6033340;23;20435;-86
2023/05/01 04:50:54;;;;;;;14.43;8.75;;;5.50;99.90;;;;;;6032728;23;20019;-86
2023/05/01 04:53:19;;;;;;;21.60;8.93;;;5.90;99.90;;;;;;6159150;23;20032;-86
2023/05/01 04:55:45;;;;;;;13.85;8.57;;;5.60;99.90;;;;;;6183259;23;20318;-86
2023/05/01 04:58:11;;;;;;;17.45;8.35;;;6.20;99.90;;;;;;6184760;23;20024;-87
2023/05/01 05:00:37;;;;;;;17.85;8.48;;;6.20;99.90;;;;;;6184175;23;20019;-87
2023/05/01 05:03:03;;;;;;;16.30;8.57;;;6.10;99.90;;;;;;6183359;23;20020;-87
2023/05/01 05:05:29;;;;;;;13.98;8.65;;;5.90;99.90;;;;;;6158636;23;20040;-87
2023/05/01 05:07:55;;;;;;;20.42;8.35;;;6.30;99.90;;;;;;6184663;23;20044;-88
2023/05/01 05:10:20;;;;;;;13.57;7.80;;;6.10;99.90;;;;;;6044132;23;20300;-87
2023/05/01 05:12:46;;;;;;;16.27;8.57;;;6.70;99.90;;;;;;6033803;23;20141;-87
2023/05/01 05:15:12;;;;;;;13.43;7.93;;;6.40;99.90;;;;;;6033777;23;20023;-88
2023/05/01 05:17:38;;;;;;;14.90;8.52;;;6.80;99.90;;;;;;6158534;23;20137;-88
2023/05/01 05:20:04;;;;;;;15.63;8.52;;;6.60;99.90;;;;;;6183059;23;20079;-86
2023/05/01 05:22:30;;;;;;;15.45;8.30;;;6.80;99.90;;;;;;6158936;23;20029;-87
2023/05/01 05:24:58;;;;;;;17.17;8.48;;;7.10;99.90;;;;;;6183018;23;20106;-87
2023/05/01 05:27:24;;;;;;;15.68;8.88;;;7.00;99.90;;;;;;6158940;23;20017;-87
2023/05/01 05:29:50;;;;;;;16.15;8.57;;;7.10;99.90;;;;;;6183458;23;20019;-87
2023/05/01 05:32:16;;;;;;;16.65;7.70;;;7.20;99.90;;;;;;6182990;23;20323;-87
2023/05/01 05:34:41;;;;;;;12.10;7.88;;;7.30;99.90;;;;;;6183657;23;20507;-86
2023/05/01 05:37:07;;;;;;;13.02;8.27;;;7.80;99.90;;;;;;6182792;23;20330;-86
2023/05/01 05:39:33;;;;;;;19.23;8.02;;;7.50;99.90;;;;;;6182219;23;20071;-87
2023/05/01 05:41:59;;;;;;;19.60;7.78;;;7.60;99.90;;;;;;6159174;23;20016;-87
2023/05/01 05:44:24;;;;;;;12.10;7.45;;;7.70;99.90;;;;;;6158200;23;20019;-87
2023/05/01 05:46:50;;;;;;;15.52;7.72;;;7.80;99.90;;;;;;6133735;23;20392;-87
2023/05/01 05:49:16;;;;;;;17.48;7.40;;;8.20;99.90;;;;;;6034322;23;20042;-87
2023/05/01 05:51:41;;;;;;;16.52;7.90;;;7.90;99.90;;;;;;6034941;23;20023;-87
2023/05/01 05:54:07;;;;;;;14.10;8.00;;;8.00;99.90;;;;;;6035312;23;20026;-87
2023/05/01 05:56:33;;;;;;;13.68;7.63;;;8.40;99.90;;;;;;6034946;23;20021;-86
2023/05/01 05:59:02;;;;;;;18.55;7.95;;;8.10;99.90;;;;;;6185836;23;20039;-85
2023/05/01 06:01:28;;;;;;;14.90;8.05;;;8.10;99.90;;;;;;6159798;23;20016;-86
2023/05/01 06:03:53;;;;;;;14.60;8.00;;;8.20;99.90;;;;;;6185586;23;20082;-86
2023/05/01 06:06:19;;;;;;;19.27;7.90;;;8.50;99.90;;;;;;6183334;23;20013;-87
2023/05/01 06:08:45;;;;;;;16.85;8.38;;;8.30;99.90;;;;;;6159976;23;20377;-87
2023/05/01 06:11:11;;;;;;;17.50;7.53;;;8.60;99.90;;;;;;6160737;23;20096;-87
2023/05/01 06:13:37;;;;;;;14.07;8.32;;;8.40;99.90;;;;;;6126447;23;20471;-89
2023/05/01 06:16:03;;;;;;;12.18;7.63;;;8.40;99.90;;;;;;6136064;23;20101;-87
2023/05/01 06:18:29;;;;;;;15.70;7.80;;;8.50;99.90;;;;;;6160133;23;20063;-88
2023/05/01 06:20:55;;;;;;;17.38;8.05;;;8.50;99.90;;;;;;6160108;23;20401;-87
2023/05/01 06:23:21;;;;;;;14.23;7.95;;;8.60;99.90;;;;;;6161153;23;20047;-88
2023/05/01 06:25:47;;;;;;;19.08;8.02;;;8.80;99.90;;;;;;6185037;23;20015;-86
2023/05/01 06:28:14;;;;;;;13.50;8.15;;;8.70;99.90;;;;;;6210999;23;20021;-88
2023/05/01 06:30:40;;;;;;;15.40;7.43;;;8.80;99.90;;;;;;6160914;23;20091;-87
2023/05/01 06:33:06;;;;;;;14.07;7.53;;;8.80;99.90;;;;;;6186605;23;20040;-87
2023/05/01 06:35:31;;;;;;;17.65;8.43;;;8.90;99.90;;;;;;6185152;23;20017;-87
2023/05/01 06:37:57;;;;;;;15.98;7.80;;;9.00;99.90;;;;;;6186035;23;20100;-88
2023/05/01 06:40:23;;;;;;;16.83;7.80;;;9.00;99.90;;;;;;6161298;23;20020;-88
2023/05/01 06:42:48;;;;;;;18.88;8.02;;;9.10;99.90;;;;;;6185619;23;20501;-87
2023/05/01 06:45:14;;;;;;;16.10;7.90;;;9.20;99.90;;;;;;6186057;23;20016;-87
2023/05/01 06:47:40;;;;;;;14.48;7.28;;;9.40;99.90;;;;;;6185910;23;20031;-88
2023/05/01 06:50:37;;;;;;;18.67;7.82;;;9.40;99.90;;;;;;6185279;23;20134;-92
2023/05/01 06:53:09;;;;;;;18.13;7.70;;;9.50;99.90;;;;;;6145535;23;20019;-89
2023/05/01 06:55:41;;;;;;;19.90;7.80;;;9.70;99.90;;;;;;6037417;23;20023;-92
2023/05/01 06:58:07;;;;;;;15.65;7.65;;;9.80;99.90;;;;;;6036513;23;20023;-89
2023/05/01 07:00:33;;;;;;;16.08;7.47;;;9.90;99.90;;;;;;6035724;23;20026;-89
2023/05/01 07:02:59;;;;;;;13.73;7.65;;;10.00;99.90;;;;;;6036891;23;20057;-88
2023/05/01 07:05:25;;;;;;;15.88;8.40;;;10.10;99.90;;;;;;6136049;23;20023;-88
2023/05/01 07:07:51;;;;;;;17.05;7.25;;;10.30;99.90;;;;;;6037159;23;20560;-89
2023/05/01 07:10:17;;;;;;;13.70;8.02;;;10.40;99.90;;;;;;6186701;23;20461;-88
2023/05/01 07:12:42;;;;;;;16.65;8.63;;;10.40;99.90;;;;;;6187225;23;20016;-88
2023/05/01 07:15:08;;;;;;;12.65;7.43;;;10.50;99.90;;;;;;6186097;23;20024;-87
2023/05/01 07:17:35;;;;;;;14.13;7.35;;;10.60;99.90;;;;;;6160842;23;20047;-89
2023/05/01 07:20:01;;;;;;;16.15;7.53;;;10.70;99.90;;;;;;6162042;23;20524;-88
2023/05/01 07:22:28;;;;;;;15.85;8.00;;;10.70;99.90;;;;;;6161343;23;20023;-89
2023/05/01 07:24:53;;;;;;;20.00;8.45;;;10.80;99.90;;;;;;6162501;23;20020;-90
2023/05/01 07:27:19;;;;;;;17.45;8.70;;;10.80;99.90;;;;;;6186885;23;20032;-90
2023/05/01 07:29:45;;;;;;;13.23;7.30;;;10.90;99.90;;;;;;6162159;23;20107;-89
2023/05/01 07:32:11;;;;;;;14.77;8.25;;;11.00;99.90;;;;;;6186687;23;20323;-88
2023/05/01 07:34:36;;;;;;;14.73;7.57;;;11.10;99.90;;;;;;6185794;23;20028;-88
2023/05/01 07:37:03;;;;;;;18.63;7.95;;;11.30;99.90;;;;;;6186368;23;20333;-88
2023/05/01 07:39:30;;;;;;;17.20;8.25;;;11.50;99.90;;;;;;6135723;23;20515;-88
2023/05/01 07:42:00;;;;;;;12.88;7.20;;;11.70;99.90;;;;;;6036365;23;20041;-89
2023/05/01 07:44:26;;;;;;;14.65;7.68;;;11.80;99.90;;;;;;6135676;23;20054;-89
2023/05/01 07:46:52;;;;;;;14.10;7.45;;;12.00;99.90;;;;;;6136488;23;20079;-89
2023/05/01 07:49:17;;;;;;;20.08;7.50;;;12.10;99.90;;;;;;6036214;23;20101;-88
2023/05/01 07:51:44;;;;;;;13.15;6.78;;;12.20;99.90;;;;;;6034469;23;20069;-88
2023/05/01 07:54:10;;;;;;;17.00;7.25;;;12.20;99.90;;;;;;6161710;23;20016;-88
2023/05/01 07:56:35;;;;;;;15.80;6.90;;;12.30;99.90;;;;;;6184307;23;20086;-88
2023/05/01 07:59:01;;;;;;;16.25;7.13;;;12.50;99.90;;;;;;6184610;23;20017;-88
2023/05/01 08:01:27;;;;;;;14.40;7.03;;;12.60;99.90;;;;;;6090803;23;20026;-87
2023/05/01 08:03:52;;;;;;;15.15;7.28;;;12.80;99.90;;;;;;6135169;23;20436;-88
2023/05/01 08:06:18;;;;;;;19.42;6.75;;;13.00;99.90;;;;;;6133878;23;20443;-88
2023/05/01 08:08:44;;;;;;;10.77;5.88;;;13.10;99.90;;;;;;6035179;23;20055;-89
2023/05/01 08:11:11;;;;;;;12.13;6.20;;;13.30;99.90;;;;;;6035022;23;20030;-89
2023/05/01 08:13:37;;;;;;;13.35;6.40;;;13.40;99.90;;;;;;6033469;23;20164;-88
2023/05/01 08:16:02;;;;;;;16.20;6.30;;;13.50;99.90;;;;;;6034330;23;20102;-88
2023/05/01 08:18:29;;;;;;;14.38;6.50;;;13.60;99.90;;;;;;6034999;23;20031;-88
2023/05/01 08:20:55;;;;;;;13.75;5.82;;;13.70;99.90;;;;;;6033714;23;20105;-89
2023/05/01 08:23:21;;;;;;;18.27;6.47;;;13.80;99.90;;;;;;6034615;23;20031;-88
2023/05/01 08:25:49;;;;;;;11.48;5.45;;;13.90;99.90;;;;;;6035742;23;20069;-89
2023/05/01 08:28:15;;;;;;;14.55;5.60;;;13.90;99.90;;;;;;6034621;23;20030;-88
2023/05/01 08:30:43;;;;;;;14.77;6.07;;;13.90;99.90;;;;;;6035326;23;20300;-88
2023/05/01 08:33:09;;;;;;;13.52;6.00;;;13.80;99.90;;;;;;6035789;23;20023;-89
2023/05/01 08:35:35;;;;;;;13.25;5.60;;;13.80;99.90;;;;;;6033568;23;20015;-88
2023/05/01 08:38:00;;;;;;;12.35;4.95;;;13.90;99.90;;;;;;6035224;23;20705;-89
2023/05/01 08:40:30;;;;;;;18.63;5.05;;;13.90;99.90;;;;;;6034602;23;20085;-87
2023/05/01 08:42:56;;;;;;;10.75;4.50;;;14.10;99.90;;;;;;6035138;23;20023;-88
2023/05/01 08:45:24;;;;;;;10.25;2.95;;;14.20;99.90;;;;;;6033914;23;20018;-88
2023/05/01 08:47:51;;;;;;;12.10;3.60;;;14.30;99.90;;;;;;6034614;23;20023;-88
2023/05/01 08:50:18;;;;;;;12.93;3.90;;;14.40;99.90;;;;;;6035107;23;20027;-89
2023/05/01 08:52:45;;;;;;;12.82;4.38;;;14.50;99.90;;;;;;6035245;23;20037;-88
2023/05/01 08:55:13;;;;;;;10.07;3.70;;;14.50;99.90;;;;;;6034096;23;20023;-88
2023/05/01 08:57:44;;;;;;;12.65;4.45;;;14.60;99.90;;;;;;6034998;23;20393;-89
2023/05/01 09:00:16;;;;;;;17.63;5.07;;;14.80;99.90;;;;;;6135936;23;20106;-89
2023/05/01 09:02:45;;;;;;;9.48;4.78;;;14.80;99.90;;;;;;6035360;23;20026;-88
2023/05/01 09:05:12;;;;;;;12.07;4.55;;;15.00;99.90;;;;;;6036291;23;20085;-88
2023/05/01 09:07:39;;;;;;;15.50;4.25;;;15.10;99.90;;;;;;6035674;23;20094;-89
2023/05/01 09:10:06;;;;;;;12.38;3.60;;;15.20;99.90;;;;;;6134983;23;20019;-88
2023/05/01 09:12:34;;;;;;;10.63;4.00;;;15.20;99.90;;;;;;6135235;23;20069;-88
2023/05/01 09:15:02;;;;;;;10.25;3.83;;;15.20;99.90;;;;;;6045635;23;20041;-88
2023/05/01 09:17:30;;;;;;;8.55;3.50;;;15.20;99.90;;;;;;6160031;23;20017;-87
2023/05/01 09:19:57;;;;;;;12.50;4.50;;;15.30;99.90;;;;;;6134129;23;20073;-87
2023/05/01 09:22:23;;;;;;;13.32;3.85;;;15.40;99.90;;;;;;6035098;23;20583;-89
2023/05/01 09:24:48;;;;;;;13.38;4.25;;;15.50;99.90;;;;;;6160431;23;20461;-89
2023/05/01 09:27:14;;;;;;;12.68;4.15;;;15.50;99.90;;;;;;6185411;23;20016;-89
2023/05/01 09:29:44;;;;;;;8.65;3.92;;;15.60;99.90;;;;;;6160770;23;20084;-89
2023/05/01 09:32:14;;;;;;;11.02;3.33;;;15.60;99.90;;;;;;6159725;23;20086;-89
2023/05/01 09:34:42;;;;;;;13.20;3.90;;;15.60;99.90;;;;;;6160819;23;20035;-89
2023/05/01 09:37:23;;;;;;;11.55;3.60;;;15.70;99.90;;;;;;6134491;23;20019;-90
2023/05/01 09:39:59;;;;;;;11.57;3.78;;;15.80;99.90;;;;;;6159889;23;20035;-88
2023/05/01 09:42:25;;;;;;;17.75;4.82;;;15.80;99.90;;;;;;6159008;23;20131;-87
2023/05/01 09:44:51;;;;;;;48.58;5.18;;;15.90;99.90;;;;;;6158499;23;20344;-87
2023/05/01 09:47:21;;;;;;;12.82;3.35;;;16.00;99.90;;;;;;6034453;23;20018;-87
2023/05/01 09:49:48;;;;;;;11.80;3.85;;;16.20;99.90;;;;;;6160802;23;20044;-87
2023/05/01 09:52:14;;;;;;;10.05;4.32;;;16.20;99.90;;;;;;6208832;23;20036;-87
2023/05/01 09:54:40;;;;;;;8.50;3.65;;;16.30;99.90;;;;;;6184863;23;20055;-87
2023/05/01 09:57:06;;;;;;;16.80;3.92;;;16.40;99.90;;;;;;6184593;23;20013;-87
2023/05/01 09:59:33;;;;;;;11.85;3.42;;;16.40;99.90;;;;;;6184209;23;20025;-88
2023/05/01 10:02:00;;;;;;;18.80;4.25;;;16.50;99.90;;;;;;6160490;23;20055;-87
2023/05/01 10:04:31;;;;;;;10.50;3.40;;;16.60;99.90;;;;;;6159861;23;20028;-87
2023/05/01 10:06:59;;;;;;;9.80;3.60;;;16.70;99.90;;;;;;6159626;23;20096;-88
2023/05/01 10:09:27;;;;;;;7.97;3.15;;;16.70;99.90;;;;;;6159854;23;20024;-88
2023/05/01 10:11:56;;;;;;;12.13;3.13;;;16.80;99.90;;;;;;6160969;23;20009;-88
2023/05/01 10:14:24;;;;;;;10.20;3.15;;;16.90;99.90;;;;;;6159381;23;20017;-87
2023/05/01 10:16:51;;;;;;;16.13;3.75;;;17.00;99.90;;;;;;6160089;23;20020;-87
2023/05/01 10:19:17;;;;;;;10.68;4.03;;;17.10;99.90;;;;;;6158765;23;20016;-87
2023/05/01 10:21:43;;;;;;;11.50;3.88;;;17.20;99.90;;;;;;6160043;23;20055;-88
2023/05/01 10:24:09;;;;;;;8.20;2.97;;;17.30;99.90;;;;;;6160407;23;20024;-87
2023/05/01 10:26:36;;;;;;;11.52;3.17;;;17.30;99.90;;;;;;6158871;23;20099;-87
2023/05/01 10:29:03;;;;;;;8.88;3.13;;;17.40;99.90;;;;;;6159856;23;20091;-88
2023/05/01 10:31:31;;;;;;;9.20;3.65;;;17.50;99.90;;;;;;6158531;23;20445;-87
2023/05/01 10:33:59;;;;;;;10.52;2.90;;;17.60;99.90;;;;;;6159659;23;20392;-87
2023/05/01 10:36:31;;;;;;;7.63;2.60;;;17.70;99.90;;;;;;6159133;23;20369;-87
2023/05/01 10:38:57;;;;;;;7.00;1.33;;;17.70;99.90;;;;;;6157987;23;20095;-87
2023/05/01 10:41:57;;;;;;;4.05;1.55;;;17.70;99.90;;;;;;6159980;23;20013;-87
2023/05/01 10:44:25;;;;;;;4.15;1.30;;;17.80;99.90;;;;;;6160901;23;20427;-86
2023/05/01 10:46:51;;;;;;;10.63;2.00;;;17.80;99.90;;;;;;6161121;23;20448;-87
2023/05/01 10:49:18;;;;;;;5.10;1.00;;;17.80;99.90;;;;;;6160988;23;20016;-86
2023/05/01 10:51:56;;;;;;;9.70;1.40;;;17.80;99.90;;;;;;6160542;23;20016;-87
2023/05/01 10:54:25;;;;;;;7.95;1.55;;;17.80;99.90;;;;;;6160235;23;20062;-87
2023/05/01 10:56:52;;;;;;;3.35;1.00;;;17.90;99.90;;;;;;6160869;23;20099;-87
2023/05/01 10:59:18;;;;;;;6.53;1.83;;;17.90;99.90;;;;;;6160824;23;20091;-87
2023/05/01 11:01:47;;;;;;;8.90;1.95;;;17.90;99.80;;;;;;6159186;23;20039;-87
2023/05/01 11:04:21;;;;;;;4.85;1.27;;;17.90;99.80;;;;;;6160347;23;20020;-87
2023/05/01 11:07:03;;;;;;;6.35;1.33;;;17.90;99.90;;;;;;6134520;23;20168;-86
2023/05/01 11:09:40;;;;;;;6.68;1.20;;;18.00;99.80;;;;;;6034295;23;20031;-87
2023/05/01 11:12:07;;;;;;;10.10;2.05;;;18.00;99.80;;;;;;6033925;23;20098;-86
2023/05/01 11:14:52;;;;;;;6.18;2.10;;;17.90;99.90;;;;;;6035035;23;20033;-86
2023/05/01 11:17:38;;;;;;;5.78;1.85;;;17.90;99.90;;;;;;6034613;23;20026;-86
2023/05/01 11:20:05;;;;;;;7.28;2.20;;;17.90;99.80;;;;;;6033917;23;20027;-88
2023/05/01 11:22:32;;;;;;;4.25;2.10;;;17.80;99.90;;;;;;6058190;23;20030;-87
2023/05/01 11:24:57;;;;;;;4.03;2.13;;;17.90;99.90;;;;;;6058434;23;20038;-86
2023/05/01 11:27:24;;;;;;;38.40;3.75;;;17.90;99.90;;;;;;6033193;23;20027;-87
2023/05/01 11:29:50;;;;;;;6.32;2.13;;;18.00;99.90;;;;;;6034356;23;20023;-87
2023/05/01 11:32:18;;;;;;;8.27;2.70;;;18.10;99.90;;;;;;6033131;23;20416;-88
2023/05/01 11:34:45;;;;;;;5.28;2.50;;;18.10;99.90;;;;;;6034894;23;20019;-87
2023/05/01 11:37:11;;;;;;;7.57;3.13;;;18.20;99.90;;;;;;6032273;23;20033;-89
2023/05/01 11:44:20;;;;;;;5.40;2.10;;;18.50;99.20;;;;;;5963976;23;20027;-92
2023/05/01 11:47:07;;;;;;;;;;;;;;;;;;;;;
2023/05/01 11:49:57;;;;;;;8.38;2.17;;;18.50;99.40;;;;;;6059965;23;20050;-88
2023/05/01 11:52:23;;;;;;;8.18;2.30;;;18.50;99.50;;;;;;6035516;23;20019;-88
2023/05/01 11:54:49;;;;;;;8.02;2.55;;;18.60;99.80;;;;;;6035469;23;20050;-86
2023/05/01 11:57:18;;;;;;;7.13;2.58;;;18.70;99.90;;;;;;6035744;23;20015;-87
2023/05/01 11:59:54;;;;;;;7.82;2.40;;;18.80;99.90;;;;;;6227180;22;20111;-86
2023/05/01 12:02:30;;;;;;;7.13;2.55;;;18.90;99.70;;;;;;6216123;23;20044;-87
2023/05/01 12:04:55;;;;;;;5.22;2.20;;;18.90;99.90;;;;;;6216099;23;20466;-87
2023/05/01 12:07:35;;;;;;;;;;;;;;;;;;;;;
2023/05/01 12:10:08;;;;;;;8.43;2.38;;;18.70;99.90;;;;;;6241222;23;20452;-89
2023/05/01 12:12:35;;;;;;;7.88;2.20;;;18.60;99.90;;;;;;6214703;23;20100;-88
2023/05/01 12:15:02;;;;;;;4.70;1.75;;;18.50;99.60;;;;;;6191267;23;20020;-89
2023/05/01 12:17:28;;;;;;;6.40;1.50;;;18.40;99.90;;;;;;6241840;23;20072;-89
2023/05/01 12:19:54;;;;;;;3.97;1.23;;;18.30;99.90;;;;;;6215946;23;20095;-89
2023/05/01 12:22:20;;;;;;;7.65;1.00;;;18.20;99.20;;;;;;6215590;23;20056;-90
2023/05/01 12:24:51;;;;;;;2.97;1.05;;;18.10;99.00;;;;;;6242284;23;20024;-90
2023/05/01 12:27:17;;;;;;;2.58;0.70;;;18.10;98.80;;;;;;6190780;23;20508;-90
2023/05/01 12:29:46;;;;;;;1.95;0.75;;;18.10;98.90;;;;;;6216719;23;20336;-89
2023/05/01 12:32:12;;;;;;;6.65;1.42;;;18.20;98.90;;;;;;6215892;23;20023;-90
2023/05/01 12:34:40;;;;;;;4.35;0.82;;;18.30;99.30;;;;;;6216177;23;20122;-90
2023/05/01 12:37:07;;;;;;;4.28;1.20;;;18.40;99.50;;;;;;6215545;23;20016;-89
2023/05/01 12:39:41;;;;;;;3.15;0.90;;;18.50;99.90;;;;;;6216251;23;20027;-89
2023/05/01 12:42:15;;;;;;;3.10;0.90;;;18.70;99.40;;;;;;6215617;23;20016;-89
2023/05/01 12:44:42;;;;;;;5.15;1.10;;;18.90;99.40;;;;;;6215092;23;20020;-89
2023/05/01 12:47:09;;;;;;;4.93;0.98;;;19.00;99.30;;;;;;6215115;23;20023;-89
2023/05/01 12:49:36;;;;;;;2.83;1.00;;;18.90;98.70;;;;;;6215482;23;20016;-90
2023/05/01 12:52:05;;;;;;;4.28;1.08;;;18.90;99.00;;;;;;6215155;23;20017;-90
2023/05/01 12:54:36;;;;;;;4.05;1.10;;;18.70;98.80;;;;;;6215463;23;20023;-89
2023/05/01 12:57:13;;;;;;;7.90;1.10;;;18.50;98.40;;;;;;6215866;23;20054;-89